createdAt,value
2022-11-24T00:02:23.984Z,11.40
2022-11-24T00:06:07.646Z,8.48
2022-11-24T00:09:49.388Z,12.93
2022-11-24T00:13:31.263Z,8.73
2022-11-24T00:17:12.989Z,11.32
2022-11-24T00:20:54.706Z,10.02
2022-11-24T00:24:36.578Z,8.52
2022-11-24T00:28:18.354Z,6.40
2022-11-24T00:32:01.949Z,5.57
2022-11-24T00:35:43.661Z,6.28
2022-11-24T00:39:25.376Z,9.20
2022-11-24T00:43:07.114Z,19.85
2022-11-24T00:46:49.016Z,10.35
2022-11-24T00:50:31.282Z,5.38
2022-11-24T00:54:13.026Z,9.32
2022-11-24T00:57:54.897Z,10.73
2022-11-24T01:01:36.908Z,9.00
2022-11-24T01:05:19.196Z,16.20
2022-11-24T01:09:01.338Z,10.52
2022-11-24T01:12:43.101Z,13.07
2022-11-24T01:16:31.308Z,12.10
2022-11-24T01:20:13.450Z,14.98
2022-11-24T01:23:55.287Z,14.82
2022-11-24T01:27:37.885Z,11.30
2022-11-24T01:31:19.674Z,18.13
2022-11-24T01:35:01.711Z,13.80
2022-11-24T01:38:43.516Z,18.20
2022-11-24T01:42:25.593Z,21.27
2022-11-24T01:46:32.106Z,17.20
2022-11-24T01:50:16.609Z,19.55
2022-11-24T01:54:04.818Z,22.92
2022-11-24T01:57:53.254Z,21.05
2022-11-24T02:01:35.152Z,19.00
2022-11-24T02:05:32.943Z,21.35
2022-11-24T02:09:31.254Z,19.23
2022-11-24T02:13:14.743Z,32.95
2022-11-24T02:16:56.487Z,27.33
2022-11-24T02:20:38.388Z,27.65
2022-11-24T02:24:29.601Z,19.08
2022-11-24T02:28:16.296Z,29.23
2022-11-24T02:32:06.204Z,22.00
2022-11-24T02:35:47.922Z,29.13
2022-11-24T02:39:29.679Z,15.75
2022-11-24T02:43:16.256Z,26.95
2022-11-24T02:47:07.178Z,27.70
2022-11-24T02:50:48.996Z,24.52
2022-11-24T02:54:31.052Z,29.98
2022-11-24T02:58:14.862Z,19.58
2022-11-24T03:01:56.735Z,20.90
2022-11-24T03:05:38.636Z,18.83
2022-11-24T03:09:20.545Z,29.20
2022-11-24T03:13:02.299Z,28.05
2022-11-24T03:16:44.071Z,22.38
2022-11-24T03:20:26.406Z,20.92
2022-11-24T03:24:08.162Z,21.88
2022-11-24T03:27:49.942Z,29.35
2022-11-24T03:31:31.724Z,29.35
2022-11-24T03:35:13.478Z,24.17
2022-11-24T03:38:55.271Z,22.05
2022-11-24T03:42:36.986Z,32.38
2022-11-24T03:46:18.835Z,26.50
2022-11-24T03:50:00.845Z,22.80
2022-11-24T03:53:42.611Z,18.55
2022-11-24T03:57:24.373Z,25.90
2022-11-24T04:01:06.095Z,25.42
2022-11-24T04:04:50.653Z,22.73
2022-11-24T04:08:32.419Z,26.50
2022-11-24T04:12:32.744Z,23.55
2022-11-24T04:16:14.585Z,26.90
2022-11-24T04:19:56.344Z,27.40
2022-11-24T04:23:38.120Z,27.10
2022-11-24T04:27:19.882Z,27.02
2022-11-24T04:31:05.927Z,32.67
2022-11-24T04:34:47.686Z,20.75
2022-11-24T04:39:23.026Z,23.00
2022-11-24T04:42:31.153Z,23.50
2022-11-24T04:46:12.988Z,28.65
2022-11-24T04:49:54.985Z,33.03
2022-11-24T04:53:36.823Z,35.53
2022-11-24T04:57:21.264Z,28.95
2022-11-24T05:01:07.035Z,32.38
2022-11-24T05:04:49.283Z,27.02
2022-11-24T05:08:31.070Z,24.05
2022-11-24T05:12:12.827Z,25.60
2022-11-24T05:15:54.583Z,26.95
2022-11-24T05:19:36.370Z,29.92
2022-11-24T05:23:18.392Z,30.17
2022-11-24T05:27:00.190Z,32.65
2022-11-24T05:30:42.287Z,31.42
2022-11-24T05:34:24.564Z,27.08
2022-11-24T05:38:06.558Z,30.70
2022-11-24T05:41:48.276Z,28.40
2022-11-24T05:45:30.489Z,33.08
2022-11-24T05:49:12.238Z,25.52
2022-11-24T05:52:53.947Z,27.67
2022-11-24T05:56:35.682Z,30.08
2022-11-24T06:00:18.253Z,30.55
2022-11-24T06:04:00.002Z,31.52
2022-11-24T06:07:42.075Z,23.30
2022-11-24T06:11:23.906Z,37.92
2022-11-24T06:15:06.149Z,29.90
2022-11-24T06:18:47.873Z,23.67
2022-11-24T06:22:29.587Z,36.67
2022-11-24T06:26:11.331Z,30.60
2022-11-24T06:29:53.046Z,34.10
2022-11-24T06:33:36.467Z,34.60
2022-11-24T06:37:18.267Z,33.58
2022-11-24T06:41:06.317Z,34.08
2022-11-24T06:44:48.163Z,28.77
2022-11-24T06:48:30.443Z,22.92
2022-11-24T06:52:12.221Z,22.65
2022-11-24T06:55:57.233Z,17.20
2022-11-24T06:59:38.937Z,30.38
2022-11-24T07:03:20.838Z,17.98
2022-11-24T07:07:03.079Z,18.25
2022-11-24T07:10:45.489Z,21.45
2022-11-24T07:14:27.274Z,16.55
2022-11-24T07:18:09.013Z,25.15
2022-11-24T07:21:50.748Z,30.33
2022-11-24T07:25:32.446Z,35.35
2022-11-24T07:29:14.218Z,45.30
2022-11-24T07:33:03.338Z,35.80
2022-11-24T07:36:45.227Z,42.05
2022-11-24T07:40:27.542Z,34.15
2022-11-24T07:44:09.341Z,45.90
2022-11-24T07:47:51.205Z,45.45
2022-11-24T07:51:32.958Z,40.05
2022-11-24T07:55:14.743Z,44.88
2022-11-24T07:58:56.455Z,45.35
2022-11-24T08:02:38.450Z,41.22
2022-11-24T08:06:27.205Z,51.65
2022-11-24T08:10:12.243Z,45.08
2022-11-24T08:13:54.062Z,46.13
2022-11-24T08:17:35.999Z,38.65
2022-11-24T08:21:17.840Z,48.83
2022-11-24T08:24:59.680Z,38.20
2022-11-24T08:28:42.062Z,47.83
2022-11-24T08:32:23.861Z,43.33
2022-11-24T08:36:08.351Z,47.97
2022-11-24T08:39:51.704Z,49.88
2022-11-24T08:43:33.570Z,45.85
2022-11-24T08:47:15.306Z,41.85
2022-11-24T08:50:57.807Z,56.50
2022-11-24T08:54:40.820Z,49.17
2022-11-24T08:58:22.550Z,50.35
2022-11-24T09:02:06.237Z,69.90
2022-11-24T09:05:52.497Z,62.10
2022-11-24T09:09:34.570Z,48.25
2022-11-24T09:13:16.307Z,48.78
2022-11-24T09:16:58.161Z,51.15
2022-11-24T09:20:40.657Z,52.60
2022-11-24T09:24:22.429Z,53.65
2022-11-24T09:28:04.301Z,48.47
2022-11-24T09:31:46.059Z,47.85
2022-11-24T09:35:27.780Z,42.05
2022-11-24T09:39:10.948Z,45.35
2022-11-24T09:43:05.954Z,44.80
2022-11-24T09:47:09.910Z,46.60
2022-11-24T09:50:53.097Z,43.30
2022-11-24T09:54:35.658Z,54.33
2022-11-24T09:58:48.412Z,41.28
2022-11-24T10:02:30.128Z,50.88
2022-11-24T10:06:34.611Z,39.80
2022-11-24T10:10:24.813Z,40.72
2022-11-24T10:14:18.983Z,36.38
2022-11-24T10:18:03.526Z,40.28
2022-11-24T10:22:00.879Z,33.22
2022-11-24T10:25:58.808Z,45.80
2022-11-24T10:29:42.580Z,45.55
2022-11-24T10:33:30.607Z,33.92
2022-11-24T10:37:42.696Z,38.40
2022-11-24T10:41:42.242Z,41.33
2022-11-24T10:45:26.620Z,37.47
2022-11-24T10:49:22.755Z,35.60
2022-11-24T10:53:16.083Z,25.13
2022-11-24T10:56:57.995Z,41.88
2022-11-24T11:00:39.713Z,39.22
2022-11-24T11:04:26.013Z,30.73
2022-11-24T11:08:22.239Z,33.93
2022-11-24T11:12:42.677Z,34.05
2022-11-24T11:16:36.197Z,39.45
2022-11-24T11:20:22.500Z,32.63
2022-11-24T11:24:17.049Z,35.33
2022-11-24T11:28:18.278Z,39.35
2022-11-24T11:36:10.881Z,42.05
2022-11-24T11:39:55.078Z,37.63
2022-11-24T11:43:40.790Z,34.25
2022-11-24T11:47:28.833Z,28.48
2022-11-24T11:51:36.647Z,34.85
2022-11-24T11:55:37.241Z,38.33
2022-11-24T11:59:31.724Z,29.73
2022-11-24T12:03:35.046Z,28.45
2022-11-24T12:07:42.907Z,31.67
2022-11-24T12:11:47.713Z,31.52
2022-11-24T12:15:47.229Z,23.00
2022-11-24T12:19:55.901Z,31.33
2022-11-24T12:24:18.955Z,29.88
2022-11-24T12:28:09.839Z,31.63
2022-11-24T12:32:00.551Z,29.15
2022-11-24T12:35:52.055Z,30.13
2022-11-24T12:40:01.576Z,30.30
2022-11-24T12:43:52.949Z,37.22
2022-11-24T12:48:05.992Z,32.60
2022-11-24T12:51:55.358Z,34.53
2022-11-24T12:55:38.234Z,30.13
2022-11-24T12:59:34.746Z,36.33
2022-11-24T13:03:31.523Z,35.70
2022-11-24T13:07:25.031Z,33.35
2022-11-24T13:11:21.873Z,34.80
2022-11-24T13:19:21.616Z,30.15
2022-11-24T13:23:05.037Z,24.67
2022-11-24T13:26:49.897Z,23.27
2022-11-24T13:30:34.651Z,27.95
2022-11-24T13:34:45.599Z,32.05
2022-11-24T13:38:54.407Z,23.38
2022-11-24T13:42:56.262Z,26.90
2022-11-24T13:47:06.527Z,26.70
2022-11-24T13:50:54.918Z,33.75
2022-11-24T13:54:41.722Z,26.00
2022-11-24T13:58:31.019Z,28.35
2022-11-24T14:02:23.319Z,22.90
2022-11-24T14:06:05.754Z,22.45
2022-11-24T14:09:50.894Z,27.13
2022-11-24T14:13:33.504Z,15.63
2022-11-24T14:17:21.349Z,14.20
2022-11-24T14:21:24.873Z,8.90
2022-11-24T14:25:36.833Z,12.38
2022-11-24T14:29:21.632Z,14.45
2022-11-24T14:33:04.306Z,12.60
2022-11-24T14:36:46.118Z,20.88
2022-11-24T14:40:46.613Z,27.30
2022-11-24T14:44:54.343Z,20.25
2022-11-24T14:48:46.830Z,27.85
2022-11-24T14:52:28.541Z,13.13
2022-11-24T14:56:26.372Z,22.88
2022-11-24T15:00:09.334Z,14.75
2022-11-24T15:04:17.885Z,23.33
2022-11-24T15:08:14.356Z,12.85
2022-11-24T15:11:57.215Z,17.95
2022-11-24T15:15:39.593Z,21.85
2022-11-24T15:19:28.202Z,16.77
2022-11-24T15:23:26.204Z,12.75
2022-11-24T15:27:07.986Z,16.00
2022-11-24T15:30:49.711Z,17.88
2022-11-24T15:34:31.426Z,10.98
2022-11-24T15:38:13.954Z,20.95
2022-11-24T15:41:55.712Z,18.35
2022-11-24T15:45:37.428Z,15.18
2022-11-24T15:49:19.156Z,19.50
2022-11-24T15:53:00.878Z,16.60
2022-11-24T15:56:44.398Z,21.13
2022-11-24T16:00:26.237Z,18.80
2022-11-24T16:04:08.261Z,18.27
2022-11-24T16:07:50.005Z,19.58
2022-11-24T16:11:31.834Z,19.75
2022-11-24T16:15:13.556Z,21.88
2022-11-24T16:18:55.301Z,21.95
2022-11-24T16:22:36.990Z,28.70
2022-11-24T16:26:18.992Z,23.88
2022-11-24T16:30:01.719Z,26.25
2022-11-24T16:33:44.871Z,34.72
2022-11-24T16:37:26.630Z,30.92
2022-11-24T16:41:10.413Z,27.38
2022-11-24T16:44:52.399Z,33.72
2022-11-24T16:48:37.120Z,29.08
2022-11-24T16:52:19.053Z,22.00
2022-11-24T16:56:00.832Z,29.48
2022-11-24T16:59:46.226Z,26.23
2022-11-24T17:03:33.269Z,35.80
2022-11-24T17:07:15.536Z,22.83
2022-11-24T17:10:57.552Z,33.22
2022-11-24T17:14:39.315Z,31.92
2022-11-24T17:18:25.455Z,32.33
2022-11-24T17:22:07.503Z,28.97
2022-11-24T17:25:49.463Z,25.40
2022-11-24T17:29:31.278Z,36.83
2022-11-24T17:33:13.038Z,37.67
2022-11-24T17:36:54.766Z,36.03
2022-11-24T17:40:36.536Z,32.65
2022-11-24T17:44:18.254Z,38.25
2022-11-24T17:48:01.038Z,33.28
2022-11-24T17:51:42.905Z,29.83
2022-11-24T17:55:24.649Z,29.05
2022-11-24T17:59:06.421Z,28.92
2022-11-24T18:02:48.186Z,42.15
2022-11-24T18:06:29.967Z,31.73
2022-11-24T18:10:11.701Z,36.22
2022-11-24T18:14:00.798Z,30.73
2022-11-24T18:17:43.313Z,28.60
2022-11-24T18:21:25.663Z,28.55
2022-11-24T18:25:07.698Z,35.72
2022-11-24T18:28:49.493Z,26.65
2022-11-24T18:32:32.363Z,30.92
2022-11-24T18:36:17.839Z,23.52
2022-11-24T18:40:00.147Z,21.63
2022-11-24T18:43:42.456Z,26.75
2022-11-24T18:47:24.374Z,29.55
2022-11-24T18:51:08.362Z,36.00
2022-11-24T18:54:50.097Z,27.45
2022-11-24T18:58:33.650Z,33.03
2022-11-24T19:02:15.464Z,26.50
2022-11-24T19:06:00.892Z,29.38
2022-11-24T19:09:44.028Z,29.55
2022-11-24T19:13:25.826Z,23.83
2022-11-24T19:17:07.810Z,32.50
2022-11-24T19:20:49.915Z,26.08
2022-11-24T19:24:31.728Z,30.40
2022-11-24T19:28:13.433Z,32.03
2022-11-24T19:31:55.486Z,39.60
2022-11-24T19:35:37.261Z,29.63
2022-11-24T19:39:19.133Z,32.90
2022-11-24T19:43:00.985Z,29.30
2022-11-24T19:46:42.750Z,25.25
2022-11-24T19:50:24.482Z,30.23
2022-11-24T19:54:08.442Z,39.75
2022-11-24T19:57:50.195Z,32.58
2022-11-24T20:01:37.123Z,25.77
2022-11-24T20:05:18.974Z,25.80
2022-11-24T20:09:01.465Z,30.90
2022-11-24T20:12:43.228Z,27.10
2022-11-24T20:16:29.540Z,23.45
2022-11-24T20:20:11.926Z,20.73
2022-11-24T20:23:56.702Z,26.20
2022-11-24T20:27:38.485Z,23.70
2022-11-24T20:31:23.889Z,19.35
2022-11-24T20:35:06.089Z,31.17
2022-11-24T20:38:48.956Z,26.50
2022-11-24T20:42:31.553Z,28.63
2022-11-24T20:46:21.096Z,32.38
2022-11-24T20:50:02.850Z,43.30
2022-11-24T20:53:44.586Z,32.08
2022-11-24T20:57:26.344Z,39.90
2022-11-24T21:01:19.729Z,25.13
2022-11-24T21:05:01.576Z,31.48
2022-11-24T21:08:43.485Z,26.42
2022-11-24T21:12:25.216Z,31.00
2022-11-24T21:16:14.724Z,29.60
2022-11-24T21:20:00.852Z,36.00
2022-11-24T21:23:45.075Z,33.23
2022-11-24T21:27:27.194Z,36.30
2022-11-24T21:31:14.578Z,26.40
2022-11-24T21:34:56.464Z,30.83
2022-11-24T21:38:38.297Z,20.98
2022-11-24T21:42:20.260Z,26.48
2022-11-24T21:46:03.579Z,27.67
2022-11-24T21:49:45.363Z,30.02
2022-11-24T21:53:30.467Z,28.92
2022-11-24T21:57:12.213Z,33.20
2022-11-24T22:00:54.020Z,31.17
2022-11-24T22:04:36.050Z,30.15
2022-11-24T22:08:17.841Z,29.45
2022-11-24T22:12:00.233Z,26.33
2022-11-24T22:15:42.267Z,38.03
2022-11-24T22:19:24.181Z,27.98
2022-11-24T22:23:05.968Z,37.25
2022-11-24T22:26:48.072Z,31.45
2022-11-24T22:30:29.842Z,26.40
2022-11-24T22:34:11.566Z,32.53
2022-11-24T22:37:53.365Z,29.23
2022-11-24T22:41:35.867Z,28.67
2022-11-24T22:45:17.592Z,32.88
2022-11-24T22:49:00.608Z,33.80
2022-11-24T22:52:42.298Z,34.97
2022-11-24T22:56:24.974Z,27.73
2022-11-24T23:00:08.323Z,26.63
2022-11-24T23:03:51.249Z,24.75
2022-11-24T23:07:33.093Z,21.15
2022-11-24T23:11:23.683Z,27.00
2022-11-24T23:15:08.109Z,19.23
2022-11-24T23:18:53.984Z,29.50
2022-11-24T23:22:35.920Z,24.52
2022-11-24T23:26:20.814Z,29.00
2022-11-24T23:30:03.516Z,32.88
2022-11-24T23:33:45.787Z,30.92
2022-11-24T23:37:52.201Z,35.20
2022-11-24T23:41:30.437Z,25.65
2022-11-24T23:45:12.153Z,21.30
2022-11-24T23:48:55.044Z,29.13
2022-11-24T23:52:36.787Z,31.35
2022-11-24T23:56:21.158Z,27.10
